createdAt,value
2023-03-20T00:02:22.201Z,4.43
2023-03-20T00:05:26.542Z,5.23
2023-03-20T00:08:11.986Z,4.33
2023-03-20T00:10:59.050Z,4.40
2023-03-20T00:13:44.351Z,4.00
2023-03-20T00:16:49.187Z,6.60
2023-03-20T00:19:34.834Z,3.43
2023-03-20T00:22:20.461Z,3.60
2023-03-20T00:25:06.496Z,3.37
2023-03-20T00:27:52.201Z,3.70
2023-03-20T00:30:37.603Z,3.37
2023-03-20T00:33:22.814Z,4.00
2023-03-20T00:36:09.531Z,3.10
2023-03-20T00:38:55.519Z,4.33
2023-03-20T00:41:52.707Z,3.30
2023-03-20T00:44:50.171Z,5.23
2023-03-20T00:47:37.647Z,3.00
2023-03-20T00:50:28.282Z,3.83
2023-03-20T00:53:13.469Z,3.73
2023-03-20T00:55:59.496Z,3.70
2023-03-20T00:58:44.615Z,5.57
2023-03-20T01:01:31.392Z,4.80
2023-03-20T01:04:19.435Z,4.20
2023-03-20T01:07:06.007Z,4.40
2023-03-20T01:09:51.211Z,4.60
2023-03-20T01:12:38.923Z,3.83
2023-03-20T01:15:31.539Z,5.00
2023-03-20T01:18:18.287Z,4.13
2023-03-20T01:21:03.610Z,4.93
2023-03-20T01:23:49.722Z,4.17
2023-03-20T01:26:39.525Z,4.83
2023-03-20T01:29:26.622Z,3.50
2023-03-20T01:32:14.961Z,3.57
2023-03-20T01:35:01.181Z,3.47
2023-03-20T01:37:46.991Z,4.43
2023-03-20T01:40:43.400Z,5.80
2023-03-20T01:43:29.748Z,4.20
2023-03-20T01:46:17.168Z,4.50
2023-03-20T01:49:28.439Z,4.17
2023-03-20T01:52:17.281Z,4.43
2023-03-20T01:55:02.458Z,4.80
2023-03-20T01:57:48.943Z,5.03
2023-03-20T02:00:35.613Z,5.90
2023-03-20T02:03:23.025Z,4.67
2023-03-20T02:06:19.563Z,4.30
2023-03-20T02:09:23.790Z,4.00
2023-03-20T02:12:10.952Z,4.30
2023-03-20T02:14:57.628Z,4.57
2023-03-20T02:18:05.422Z,4.00
2023-03-20T02:21:13.841Z,3.90
2023-03-20T02:24:14.497Z,4.00
2023-03-20T02:27:12.019Z,5.30
2023-03-20T02:30:18.299Z,5.97
2023-03-20T02:33:25.553Z,3.67
2023-03-20T02:36:40.765Z,3.90
2023-03-20T02:39:50.924Z,4.10
2023-03-20T02:43:02.553Z,4.40
2023-03-20T02:45:59.274Z,4.47
2023-03-20T02:48:53.738Z,4.37
2023-03-20T02:52:00.223Z,4.27
2023-03-20T02:54:54.470Z,4.40
2023-03-20T02:57:39.915Z,3.87
2023-03-20T03:00:36.642Z,5.73
2023-03-20T03:03:37.054Z,5.83
2023-03-20T03:06:28.288Z,6.17
2023-03-20T03:09:19.865Z,5.27
2023-03-20T03:12:12.384Z,5.77
2023-03-20T03:15:03.806Z,5.43
2023-03-20T03:17:49.514Z,5.27
2023-03-20T03:20:39.582Z,5.17
2023-03-20T03:23:46.737Z,5.30
2023-03-20T03:26:38.416Z,4.87
2023-03-20T03:29:26.162Z,4.37
2023-03-20T03:32:35.712Z,7.63
2023-03-20T03:35:22.433Z,5.87
2023-03-20T03:38:37.047Z,6.50
2023-03-20T03:41:25.044Z,7.03
2023-03-20T03:44:21.799Z,7.63
2023-03-20T03:47:12.745Z,7.03
2023-03-20T03:50:04.601Z,8.63
2023-03-20T03:52:51.890Z,7.00
2023-03-20T03:55:45.750Z,9.43
2023-03-20T03:58:36.087Z,7.13
2023-03-20T04:01:23.916Z,7.47
2023-03-20T04:04:10.563Z,9.30
2023-03-20T04:06:56.419Z,10.90
2023-03-20T04:09:42.093Z,9.10
2023-03-20T04:12:37.775Z,9.03
2023-03-20T04:15:24.582Z,8.93
2023-03-20T04:18:17.763Z,8.30
2023-03-20T04:21:04.605Z,7.83
2023-03-20T04:23:50.311Z,6.90
2023-03-20T04:26:36.089Z,9.00
2023-03-20T04:29:21.715Z,7.70
2023-03-20T04:32:17.999Z,7.40
2023-03-20T04:35:27.076Z,6.93
2023-03-20T04:38:20.788Z,8.10
2023-03-20T04:41:07.337Z,7.27
2023-03-20T04:43:52.706Z,7.30
2023-03-20T04:46:37.914Z,8.87
2023-03-20T04:49:31.672Z,7.57
2023-03-20T04:52:17.403Z,8.90
2023-03-20T04:55:04.455Z,8.03
2023-03-20T04:57:50.851Z,10.67
2023-03-20T05:00:36.169Z,8.83
2023-03-20T05:03:23.961Z,8.30
2023-03-20T05:06:10.500Z,9.73
2023-03-20T05:09:00.115Z,9.77
2023-03-20T05:11:47.352Z,9.30
2023-03-20T05:14:52.889Z,9.40
2023-03-20T05:17:57.056Z,11.30
2023-03-20T05:20:53.092Z,10.40
2023-03-20T05:23:51.727Z,9.60
2023-03-20T05:26:55.170Z,9.53
2023-03-20T05:30:00.838Z,10.00
2023-03-20T05:33:15.713Z,11.10
2023-03-20T05:36:11.990Z,8.80
2023-03-20T05:39:27.129Z,9.63
2023-03-20T05:42:18.608Z,9.27
2023-03-20T05:45:24.799Z,11.23
2023-03-20T05:48:49.007Z,10.70
2023-03-20T05:52:02.786Z,9.33
2023-03-20T05:55:11.267Z,9.63
2023-03-20T05:58:06.064Z,10.07
2023-03-20T06:01:22.024Z,10.90
2023-03-20T06:04:07.452Z,9.83
2023-03-20T06:07:08.595Z,10.13
2023-03-20T06:09:55.878Z,9.03
2023-03-20T06:12:41.531Z,9.73
2023-03-20T06:15:28.329Z,10.33
2023-03-20T06:18:20.943Z,11.20
2023-03-20T06:21:06.836Z,10.00
2023-03-20T06:23:52.384Z,14.00
2023-03-20T06:26:40.504Z,10.37
2023-03-20T06:29:29.232Z,11.43
2023-03-20T06:32:23.841Z,10.45
2023-03-20T06:35:11.433Z,10.70
2023-03-20T06:38:02.099Z,10.87
2023-03-20T06:40:47.451Z,10.60
2023-03-20T06:43:36.276Z,9.97
2023-03-20T06:46:21.804Z,11.27
2023-03-20T06:49:07.340Z,12.82
2023-03-20T06:51:53.971Z,10.80
2023-03-20T06:54:44.710Z,11.83
2023-03-20T06:57:30.030Z,11.10
2023-03-20T07:00:16.091Z,11.57
2023-03-20T07:03:02.443Z,11.23
2023-03-20T07:05:48.108Z,12.30
2023-03-20T07:08:35.339Z,12.15
2023-03-20T07:11:21.140Z,11.27
2023-03-20T07:14:07.479Z,11.30
2023-03-20T07:17:03.994Z,12.83
2023-03-20T07:19:51.353Z,12.45
2023-03-20T07:22:37.007Z,11.88
2023-03-20T07:25:42.263Z,13.25
2023-03-20T07:28:30.886Z,13.63
2023-03-20T07:31:29.051Z,12.90
2023-03-20T07:34:27.505Z,13.18
2023-03-20T07:37:14.282Z,11.38
2023-03-20T07:40:05.836Z,11.00
2023-03-20T07:42:53.404Z,14.40
2023-03-20T07:46:06.534Z,13.65
2023-03-20T07:48:52.899Z,12.13
2023-03-20T07:51:38.423Z,12.50
2023-03-20T07:54:24.419Z,13.40
2023-03-20T07:57:09.949Z,12.25
2023-03-20T07:59:55.093Z,11.38
2023-03-20T08:02:40.613Z,13.07
2023-03-20T08:05:26.122Z,16.38
2023-03-20T08:08:11.670Z,12.02
2023-03-20T08:10:57.371Z,14.00
2023-03-20T08:13:43.055Z,13.05
2023-03-20T08:16:28.183Z,14.55
2023-03-20T08:19:13.703Z,14.68
2023-03-20T08:21:59.025Z,14.23
2023-03-20T08:24:44.532Z,14.00
2023-03-20T08:27:30.215Z,12.98
2023-03-20T08:30:15.824Z,15.45
2023-03-20T08:33:01.054Z,15.82
2023-03-20T08:35:59.192Z,14.97
2023-03-20T08:38:44.532Z,13.85
2023-03-20T08:41:29.635Z,14.32
2023-03-20T08:44:14.814Z,15.25
2023-03-20T08:47:00.239Z,13.45
2023-03-20T08:49:45.665Z,14.18
2023-03-20T08:52:30.889Z,12.43
2023-03-20T08:55:16.549Z,13.00
2023-03-20T08:58:02.282Z,13.30
2023-03-20T09:00:47.866Z,16.48
2023-03-20T09:03:33.256Z,14.40
2023-03-20T09:06:18.777Z,18.13
2023-03-20T09:09:05.021Z,15.73
2023-03-20T09:11:50.446Z,16.88
2023-03-20T09:14:35.753Z,14.63
2023-03-20T09:17:21.201Z,18.40
2023-03-20T09:20:06.951Z,18.05
2023-03-20T09:22:52.372Z,18.83
2023-03-20T09:25:38.065Z,20.75
2023-03-20T09:28:23.680Z,19.80
2023-03-20T09:31:09.394Z,24.77
2023-03-20T09:33:55.082Z,22.38
2023-03-20T09:36:40.276Z,21.33
2023-03-20T09:39:25.579Z,20.10
2023-03-20T09:42:16.431Z,19.55
2023-03-20T09:45:37.263Z,21.40
2023-03-20T09:48:35.284Z,21.75
2023-03-20T09:51:36.023Z,21.08
2023-03-20T09:54:43.379Z,20.85
2023-03-20T09:57:41.357Z,21.92
2023-03-20T10:00:29.447Z,17.67
2023-03-20T10:03:39.106Z,17.35
2023-03-20T10:06:24.518Z,17.65
2023-03-20T10:09:25.159Z,16.90
2023-03-20T10:12:34.126Z,18.85
2023-03-20T10:15:28.702Z,17.17
2023-03-20T10:18:24.808Z,18.48
2023-03-20T10:21:17.521Z,20.52
2023-03-20T10:24:06.186Z,19.80
2023-03-20T10:26:55.659Z,18.50
2023-03-20T10:30:02.956Z,18.55
2023-03-20T10:33:00.679Z,22.00
2023-03-20T10:36:04.171Z,20.70
2023-03-20T10:39:11.072Z,20.75
2023-03-20T10:42:00.801Z,25.95
2023-03-20T10:44:54.339Z,22.50
2023-03-20T10:47:42.495Z,21.70
2023-03-20T10:50:40.199Z,21.70
2023-03-20T10:53:31.533Z,23.33
2023-03-20T10:56:29.054Z,21.50
2023-03-20T10:59:27.645Z,22.10
2023-03-20T11:02:14.960Z,23.38
2023-03-20T11:05:02.445Z,21.50
2023-03-20T11:07:51.926Z,21.10
2023-03-20T11:10:38.754Z,20.50
2023-03-20T11:13:39.263Z,21.77
2023-03-20T11:16:35.540Z,18.65
2023-03-20T11:19:23.553Z,19.15
2023-03-20T11:22:23.514Z,19.45
2023-03-20T11:25:24.908Z,16.73
2023-03-20T11:28:26.881Z,16.10
2023-03-20T11:31:27.604Z,15.40
2023-03-20T11:34:15.833Z,15.63
2023-03-20T11:37:10.508Z,15.63
2023-03-20T11:40:31.286Z,14.15
2023-03-20T11:43:25.098Z,12.75
2023-03-20T11:46:13.610Z,14.52
2023-03-20T11:49:05.921Z,13.00
2023-03-20T11:51:52.646Z,11.35
2023-03-20T11:54:45.815Z,11.80
2023-03-20T11:57:41.058Z,11.73
2023-03-20T12:00:38.029Z,10.82
2023-03-20T12:03:41.629Z,11.45
2023-03-20T12:06:37.459Z,12.32
2023-03-20T12:09:51.970Z,10.57
2023-03-20T12:12:56.711Z,11.25
2023-03-20T12:15:47.089Z,11.80
2023-03-20T12:18:38.899Z,10.82
2023-03-20T12:21:46.628Z,10.45
2023-03-20T12:24:45.179Z,9.90
2023-03-20T12:27:36.855Z,8.18
2023-03-20T12:31:04.087Z,8.55
2023-03-20T12:33:52.479Z,8.18
2023-03-20T12:36:41.591Z,7.05
2023-03-20T12:39:33.999Z,7.93
2023-03-20T12:42:49.624Z,6.47
2023-03-20T12:45:42.688Z,8.10
2023-03-20T12:48:41.540Z,6.88
2023-03-20T12:51:47.108Z,5.95
2023-03-20T12:54:51.050Z,7.65
2023-03-20T12:57:52.770Z,6.70
2023-03-20T13:00:46.007Z,6.10
2023-03-20T13:03:46.408Z,8.25
2023-03-20T13:06:52.692Z,7.50
2023-03-20T13:09:56.803Z,7.07
2023-03-20T13:13:16.268Z,7.05
2023-03-20T13:16:24.060Z,6.90
2023-03-20T13:19:25.999Z,7.80
2023-03-20T13:22:28.071Z,7.90
2023-03-20T13:25:40.823Z,6.72
2023-03-20T13:28:56.844Z,7.28
2023-03-20T13:32:01.141Z,7.30
2023-03-20T13:35:14.823Z,6.22
2023-03-20T13:38:12.166Z,5.72
2023-03-20T13:41:02.219Z,5.80
2023-03-20T13:43:51.147Z,6.53
2023-03-20T13:46:45.900Z,6.25
2023-03-20T13:49:38.426Z,7.72
2023-03-20T13:52:28.708Z,9.15
2023-03-20T13:55:24.020Z,5.95
2023-03-20T13:58:43.562Z,7.38
2023-03-20T14:01:46.062Z,8.10
2023-03-20T14:04:32.530Z,6.82
2023-03-20T14:07:30.118Z,6.40
2023-03-20T14:10:21.229Z,6.68
2023-03-20T14:13:19.135Z,5.72
2023-03-20T14:16:08.850Z,8.63
2023-03-20T14:19:06.343Z,5.07
2023-03-20T14:21:55.519Z,6.07
2023-03-20T14:24:50.884Z,5.82
2023-03-20T14:27:54.581Z,5.78
2023-03-20T14:30:39.872Z,5.95
2023-03-20T14:33:30.328Z,6.30
2023-03-20T14:36:21.432Z,5.03
2023-03-20T14:39:38.703Z,5.75
2023-03-20T14:42:39.716Z,6.15
2023-03-20T14:45:51.564Z,5.10
2023-03-20T14:48:50.589Z,5.22
2023-03-20T14:51:45.788Z,4.95
2023-03-20T14:54:31.058Z,4.53
2023-03-20T14:57:19.407Z,5.00
2023-03-20T15:00:05.775Z,5.38
2023-03-20T15:02:53.782Z,5.15
2023-03-20T15:05:41.112Z,6.13
2023-03-20T15:08:31.388Z,4.90
2023-03-20T15:11:17.376Z,5.38
2023-03-20T15:14:08.771Z,4.95
2023-03-20T15:16:58.921Z,5.63
2023-03-20T15:19:45.016Z,5.63
2023-03-20T15:22:30.391Z,9.93
2023-03-20T15:25:17.607Z,5.05
2023-03-20T15:28:07.923Z,5.47
2023-03-20T15:30:57.315Z,4.53
2023-03-20T15:33:42.914Z,5.07
2023-03-20T15:36:34.543Z,4.28
2023-03-20T15:39:23.286Z,5.18
2023-03-20T15:42:14.772Z,4.80
2023-03-20T15:45:00.222Z,4.90
2023-03-20T15:47:45.387Z,4.63
2023-03-20T15:50:38.642Z,5.22
2023-03-20T15:53:30.694Z,5.32
2023-03-20T15:56:19.728Z,5.93
2023-03-20T15:59:05.175Z,6.50
2023-03-20T16:01:55.611Z,5.50
2023-03-20T16:04:50.913Z,5.45
2023-03-20T16:07:36.215Z,5.25
2023-03-20T16:10:28.677Z,4.68
2023-03-20T16:13:15.309Z,4.15
2023-03-20T16:16:03.193Z,4.20
2023-03-20T16:18:49.348Z,4.55
2023-03-20T16:21:38.799Z,3.25
2023-03-20T16:24:30.736Z,3.17
2023-03-20T16:27:24.226Z,2.80
2023-03-20T16:30:16.679Z,2.95
2023-03-20T16:33:07.081Z,3.05
2023-03-20T16:35:52.481Z,3.55
2023-03-20T16:38:37.928Z,2.45
2023-03-20T16:41:34.866Z,3.90
2023-03-20T16:44:28.102Z,3.17
2023-03-20T16:47:13.718Z,2.60
2023-03-20T16:50:21.572Z,3.72
2023-03-20T16:53:16.101Z,3.35
2023-03-20T16:56:02.730Z,2.47
2023-03-20T16:58:47.974Z,4.20
2023-03-20T17:01:33.582Z,3.75
2023-03-20T17:04:33.570Z,3.13
2023-03-20T17:07:19.922Z,3.55
2023-03-20T17:10:17.733Z,2.95
2023-03-20T17:13:03.202Z,2.25
2023-03-20T17:15:48.483Z,3.03
2023-03-20T17:18:37.700Z,2.70
2023-03-20T17:21:22.841Z,2.42
2023-03-20T17:24:09.434Z,3.05
2023-03-20T17:26:55.645Z,2.40
2023-03-20T17:29:41.792Z,2.53
2023-03-20T17:32:27.274Z,2.58
2023-03-20T17:35:12.900Z,2.88
2023-03-20T17:37:59.559Z,2.50
2023-03-20T17:40:45.583Z,2.78
2023-03-20T17:43:31.210Z,3.90
2023-03-20T17:46:22.166Z,3.80
2023-03-20T17:49:13.577Z,3.95
2023-03-20T17:51:58.756Z,3.17
2023-03-20T17:54:45.035Z,4.63
2023-03-20T17:57:38.671Z,3.38
2023-03-20T18:00:24.546Z,2.85
2023-03-20T18:03:10.564Z,3.33
2023-03-20T18:05:56.215Z,3.67
2023-03-20T18:08:41.822Z,2.95
2023-03-20T18:11:28.013Z,4.00
2023-03-20T18:14:13.415Z,3.10
2023-03-20T18:17:01.593Z,3.58
2023-03-20T18:19:47.691Z,4.65
2023-03-20T18:22:33.160Z,3.88
2023-03-20T18:25:24.497Z,3.25
2023-03-20T18:28:15.500Z,3.47
2023-03-20T18:31:01.038Z,4.95
2023-03-20T18:33:52.336Z,4.20
2023-03-20T18:36:37.543Z,3.00
2023-03-20T18:39:24.449Z,3.65
2023-03-20T18:42:09.778Z,3.47
2023-03-20T18:44:54.946Z,3.47
2023-03-20T18:47:40.551Z,3.05
2023-03-20T18:50:32.074Z,4.53
2023-03-20T18:53:26.647Z,3.88
2023-03-20T18:56:18.280Z,4.80
2023-03-20T18:59:04.954Z,2.97
2023-03-20T19:01:53.530Z,3.05
2023-03-20T19:04:39.436Z,4.10
2023-03-20T19:07:24.846Z,2.97
2023-03-20T19:10:29.059Z,3.27
2023-03-20T19:13:17.783Z,3.50
2023-03-20T19:16:04.051Z,2.87
2023-03-20T19:18:49.284Z,3.10
2023-03-20T19:21:35.283Z,2.87
2023-03-20T19:24:20.520Z,2.57
2023-03-20T19:27:06.387Z,3.30
2023-03-20T19:29:51.757Z,5.07
2023-03-20T19:32:37.145Z,4.30
2023-03-20T19:38:29.422Z,3.80
2023-03-20T19:41:21.325Z,2.67
2023-03-20T19:44:07.744Z,3.60
2023-03-20T19:46:53.769Z,3.63
2023-03-20T19:49:39.449Z,3.27
2023-03-20T19:52:32.170Z,3.97
2023-03-20T19:55:17.560Z,5.13
2023-03-20T19:58:03.591Z,3.53
2023-03-20T20:01:11.620Z,4.03
2023-03-20T20:03:55.035Z,4.47
2023-03-20T20:06:42.760Z,2.97
2023-03-20T20:09:27.941Z,3.87
2023-03-20T20:12:13.927Z,3.00
2023-03-20T20:15:00.397Z,4.47
2023-03-20T20:17:47.581Z,3.53
2023-03-20T20:20:34.646Z,3.10
2023-03-20T20:23:26.150Z,3.47
2023-03-20T20:26:11.670Z,4.70
2023-03-20T20:28:59.869Z,3.90
2023-03-20T20:31:45.393Z,3.53
2023-03-20T20:40:45.500Z,3.17
2023-03-20T20:44:06.728Z,3.03
2023-03-20T20:46:36.061Z,5.17
2023-03-20T20:49:21.202Z,4.37
2023-03-20T20:52:07.481Z,6.10
2023-03-20T20:54:52.912Z,4.47
2023-03-20T20:57:38.472Z,6.37
2023-03-20T21:00:34.063Z,3.67
2023-03-20T21:03:26.858Z,3.97
2023-03-20T21:06:12.324Z,4.83
2023-03-20T21:08:57.513Z,3.30
2023-03-20T21:11:42.408Z,3.90
2023-03-20T21:14:27.524Z,4.53
2023-03-20T21:17:12.740Z,3.50
2023-03-20T21:19:58.136Z,5.37
2023-03-20T21:22:43.322Z,4.97
2023-03-20T21:25:39.545Z,4.47
2023-03-20T21:28:26.118Z,4.67
2023-03-20T21:31:24.491Z,5.10
2023-03-20T21:34:10.888Z,4.43
2023-03-20T21:36:59.642Z,4.20
2023-03-20T21:39:46.099Z,5.20
2023-03-20T21:42:31.312Z,5.60
2023-03-20T21:49:03.915Z,5.10
2023-03-20T21:58:17.344Z,4.77
2023-03-20T22:07:35.963Z,4.10
2023-03-20T22:10:39.788Z,5.87
2023-03-20T22:17:10.204Z,6.53
2023-03-20T22:20:07.185Z,4.90
2023-03-20T22:26:04.812Z,5.17
2023-03-20T22:32:20.776Z,4.57
2023-03-20T22:35:37.973Z,4.13
2023-03-20T22:47:04.970Z,3.93
2023-03-20T22:49:50.338Z,5.27
2023-03-20T22:52:48.279Z,4.83
2023-03-20T22:55:34.713Z,5.00
2023-03-20T22:58:20.143Z,4.33
2023-03-20T23:01:06.122Z,4.27
2023-03-20T23:03:51.158Z,4.03
2023-03-20T23:06:36.334Z,6.33
2023-03-20T23:09:21.506Z,4.73
2023-03-20T23:12:06.926Z,8.03
2023-03-20T23:14:52.427Z,4.90
2023-03-20T23:17:37.965Z,4.50
2023-03-20T23:20:23.474Z,5.30
2023-03-20T23:23:09.117Z,5.17
2023-03-20T23:26:03.397Z,3.40
2023-03-20T23:28:50.926Z,4.03
2023-03-20T23:31:36.324Z,4.50
2023-03-20T23:34:21.632Z,3.93
2023-03-20T23:37:06.845Z,4.50
2023-03-20T23:39:52.079Z,3.57
2023-03-20T23:42:37.657Z,5.37
2023-03-20T23:45:22.746Z,5.10
2023-03-20T23:48:08.222Z,4.27
2023-03-20T23:50:53.897Z,3.67
2023-03-20T23:53:39.002Z,4.13
2023-03-20T23:56:24.248Z,5.20
2023-03-20T23:59:20.543Z,5.70
